sensor_id;sensor_type;location;lat;lon;timestamp;temperature;humidity
7900;DHT22;3995;50.856;4.404;2023-04-24T00:01:16;14.50;60.40
7900;DHT22;3995;50.856;4.404;2023-04-24T00:03:44;14.50;60.30
7900;DHT22;3995;50.856;4.404;2023-04-24T00:06:11;14.50;60.30
7900;DHT22;3995;50.856;4.404;2023-04-24T00:08:38;14.50;60.30
7900;DHT22;3995;50.856;4.404;2023-04-24T00:11:06;14.50;60.40
7900;DHT22;3995;50.856;4.404;2023-04-24T00:13:33;14.50;60.50
7900;DHT22;3995;50.856;4.404;2023-04-24T00:16:00;14.50;60.50
7900;DHT22;3995;50.856;4.404;2023-04-24T00:18:27;14.50;60.70
7900;DHT22;3995;50.856;4.404;2023-04-24T00:20:56;14.50;60.90
7900;DHT22;3995;50.856;4.404;2023-04-24T00:23:23;14.50;61.30
7900;DHT22;3995;50.856;4.404;2023-04-24T00:25:50;14.50;61.50
7900;DHT22;3995;50.856;4.404;2023-04-24T00:28:17;14.50;61.40
7900;DHT22;3995;50.856;4.404;2023-04-24T00:30:44;14.40;61.40
7900;DHT22;3995;50.856;4.404;2023-04-24T00:33:12;14.40;61.40
7900;DHT22;3995;50.856;4.404;2023-04-24T00:35:39;14.40;61.50
7900;DHT22;3995;50.856;4.404;2023-04-24T00:38:08;14.40;61.40
7900;DHT22;3995;50.856;4.404;2023-04-24T00:40:35;14.40;61.50
7900;DHT22;3995;50.856;4.404;2023-04-24T00:43:02;14.40;61.60
7900;DHT22;3995;50.856;4.404;2023-04-24T00:45:29;14.40;61.50
7900;DHT22;3995;50.856;4.404;2023-04-24T00:47:57;14.40;61.50
7900;DHT22;3995;50.856;4.404;2023-04-24T00:50:25;14.40;61.60
7900;DHT22;3995;50.856;4.404;2023-04-24T00:52:52;14.40;61.60
7900;DHT22;3995;50.856;4.404;2023-04-24T00:55:21;14.40;61.50
7900;DHT22;3995;50.856;4.404;2023-04-24T00:57:48;14.40;61.60
7900;DHT22;3995;50.856;4.404;2023-04-24T01:00:16;14.40;61.50
7900;DHT22;3995;50.856;4.404;2023-04-24T01:02:44;14.30;61.60
7900;DHT22;3995;50.856;4.404;2023-04-24T01:05:13;14.40;61.70
7900;DHT22;3995;50.856;4.404;2023-04-24T01:07:41;14.40;61.70
7900;DHT22;3995;50.856;4.404;2023-04-24T01:10:10;14.40;61.80
7900;DHT22;3995;50.856;4.404;2023-04-24T01:12:38;14.30;61.70
7900;DHT22;3995;50.856;4.404;2023-04-24T01:15:07;14.30;61.70
7900;DHT22;3995;50.856;4.404;2023-04-24T01:17:34;14.30;61.70
7900;DHT22;3995;50.856;4.404;2023-04-24T01:20:02;14.30;61.80
7900;DHT22;3995;50.856;4.404;2023-04-24T01:22:33;14.30;61.80
7900;DHT22;3995;50.856;4.404;2023-04-24T01:25:03;14.30;62.50
7900;DHT22;3995;50.856;4.404;2023-04-24T01:27:30;14.30;62.00
7900;DHT22;3995;50.856;4.404;2023-04-24T01:29:58;14.30;62.00
7900;DHT22;3995;50.856;4.404;2023-04-24T01:32:25;14.30;61.90
7900;DHT22;3995;50.856;4.404;2023-04-24T01:34:53;14.30;62.00
7900;DHT22;3995;50.856;4.404;2023-04-24T01:37:21;14.30;62.00
7900;DHT22;3995;50.856;4.404;2023-04-24T01:39:50;14.30;62.10
7900;DHT22;3995;50.856;4.404;2023-04-24T01:42:17;14.30;62.10
7900;DHT22;3995;50.856;4.404;2023-04-24T01:44:45;14.30;62.00
7900;DHT22;3995;50.856;4.404;2023-04-24T01:47:12;14.30;61.90
7900;DHT22;3995;50.856;4.404;2023-04-24T01:49:40;14.30;61.80
7900;DHT22;3995;50.856;4.404;2023-04-24T01:52:07;14.30;61.80
7900;DHT22;3995;50.856;4.404;2023-04-24T01:54:34;14.30;61.80
7900;DHT22;3995;50.856;4.404;2023-04-24T01:57:03;14.30;61.70
7900;DHT22;3995;50.856;4.404;2023-04-24T01:59:30;14.30;61.80
7900;DHT22;3995;50.856;4.404;2023-04-24T02:01:58;14.30;61.90
7900;DHT22;3995;50.856;4.404;2023-04-24T02:04:25;14.20;61.90
7900;DHT22;3995;50.856;4.404;2023-04-24T02:06:52;14.20;61.90
7900;DHT22;3995;50.856;4.404;2023-04-24T02:09:19;14.20;61.90
7900;DHT22;3995;50.856;4.404;2023-04-24T02:11:46;14.20;61.90
7900;DHT22;3995;50.856;4.404;2023-04-24T02:14:15;14.20;61.80
7900;DHT22;3995;50.856;4.404;2023-04-24T02:16:42;14.20;61.80
7900;DHT22;3995;50.856;4.404;2023-04-24T02:19:09;14.20;61.90
7900;DHT22;3995;50.856;4.404;2023-04-24T02:21:36;14.20;62.00
7900;DHT22;3995;50.856;4.404;2023-04-24T02:24:03;14.10;62.10
7900;DHT22;3995;50.856;4.404;2023-04-24T02:26:31;14.10;62.20
7900;DHT22;3995;50.856;4.404;2023-04-24T02:28:58;14.10;62.20
7900;DHT22;3995;50.856;4.404;2023-04-24T02:31:26;14.10;62.20
7900;DHT22;3995;50.856;4.404;2023-04-24T02:33:53;14.10;62.10
7900;DHT22;3995;50.856;4.404;2023-04-24T02:36:20;14.10;62.10
7900;DHT22;3995;50.856;4.404;2023-04-24T02:39:14;14.10;62.20
7900;DHT22;3995;50.856;4.404;2023-04-24T02:41:42;14.10;62.40
7900;DHT22;3995;50.856;4.404;2023-04-24T02:44:09;14.10;62.30
7900;DHT22;3995;50.856;4.404;2023-04-24T02:46:36;14.10;62.40
7900;DHT22;3995;50.856;4.404;2023-04-24T02:49:03;14.10;62.50
7900;DHT22;3995;50.856;4.404;2023-04-24T02:51:30;14.10;62.40
7900;DHT22;3995;50.856;4.404;2023-04-24T02:53:57;14.10;62.40
7900;DHT22;3995;50.856;4.404;2023-04-24T02:56:25;14.10;62.30
7900;DHT22;3995;50.856;4.404;2023-04-24T02:58:52;14.10;62.30
7900;DHT22;3995;50.856;4.404;2023-04-24T03:01:19;14.10;62.50
7900;DHT22;3995;50.856;4.404;2023-04-24T03:03:47;14.10;62.50
7900;DHT22;3995;50.856;4.404;2023-04-24T03:06:15;14.10;62.50
7900;DHT22;3995;50.856;4.404;2023-04-24T03:08:42;14.10;62.70
7900;DHT22;3995;50.856;4.404;2023-04-24T03:11:09;14.10;62.70
7900;DHT22;3995;50.856;4.404;2023-04-24T03:13:38;14.10;62.60
7900;DHT22;3995;50.856;4.404;2023-04-24T03:16:05;14.10;62.60
7900;DHT22;3995;50.856;4.404;2023-04-24T03:18:32;14.10;62.70
7900;DHT22;3995;50.856;4.404;2023-04-24T03:21:00;14.10;62.70
7900;DHT22;3995;50.856;4.404;2023-04-24T03:23:29;14.00;62.70
7900;DHT22;3995;50.856;4.404;2023-04-24T03:25:56;14.00;62.80
7900;DHT22;3995;50.856;4.404;2023-04-24T03:28:23;14.00;63.10
7900;DHT22;3995;50.856;4.404;2023-04-24T03:30:52;14.00;63.40
7900;DHT22;3995;50.856;4.404;2023-04-24T03:33:20;14.00;63.60
7900;DHT22;3995;50.856;4.404;2023-04-24T03:35:46;14.00;63.70
7900;DHT22;3995;50.856;4.404;2023-04-24T03:38:14;14.00;63.80
7900;DHT22;3995;50.856;4.404;2023-04-24T03:40:41;13.90;63.80
7900;DHT22;3995;50.856;4.404;2023-04-24T03:43:08;13.90;64.00
7900;DHT22;3995;50.856;4.404;2023-04-24T03:45:35;13.90;64.00
7900;DHT22;3995;50.856;4.404;2023-04-24T03:48:04;13.90;64.00
7900;DHT22;3995;50.856;4.404;2023-04-24T03:50:31;13.90;64.00
7900;DHT22;3995;50.856;4.404;2023-04-24T03:52:59;13.90;64.10
7900;DHT22;3995;50.856;4.404;2023-04-24T03:55:26;13.90;64.10
7900;DHT22;3995;50.856;4.404;2023-04-24T03:57:53;13.90;64.20
7900;DHT22;3995;50.856;4.404;2023-04-24T04:00:20;13.90;64.20
7900;DHT22;3995;50.856;4.404;2023-04-24T04:02:48;13.90;64.10
7900;DHT22;3995;50.856;4.404;2023-04-24T04:05:17;13.90;64.20
7900;DHT22;3995;50.856;4.404;2023-04-24T04:07:45;13.90;64.20
7900;DHT22;3995;50.856;4.404;2023-04-24T04:10:12;13.90;64.30
7900;DHT22;3995;50.856;4.404;2023-04-24T04:12:39;13.90;64.20
7900;DHT22;3995;50.856;4.404;2023-04-24T04:15:08;13.90;64.20
7900;DHT22;3995;50.856;4.404;2023-04-24T04:17:35;13.90;64.30
7900;DHT22;3995;50.856;4.404;2023-04-24T04:20:04;13.90;64.30
7900;DHT22;3995;50.856;4.404;2023-04-24T04:22:36;13.90;64.20
7900;DHT22;3995;50.856;4.404;2023-04-24T04:25:03;13.90;64.20
7900;DHT22;3995;50.856;4.404;2023-04-24T04:27:31;13.90;64.80
7900;DHT22;3995;50.856;4.404;2023-04-24T04:29:59;13.90;64.30
7900;DHT22;3995;50.856;4.404;2023-04-24T04:32:26;13.90;64.40
7900;DHT22;3995;50.856;4.404;2023-04-24T04:34:53;13.90;64.40
7900;DHT22;3995;50.856;4.404;2023-04-24T04:37:20;13.90;64.60
7900;DHT22;3995;50.856;4.404;2023-04-24T04:39:49;13.90;64.50
7900;DHT22;3995;50.856;4.404;2023-04-24T04:42:19;13.90;64.40
7900;DHT22;3995;50.856;4.404;2023-04-24T04:44:46;13.90;64.30
7900;DHT22;3995;50.856;4.404;2023-04-24T04:47:13;13.90;64.20
7900;DHT22;3995;50.856;4.404;2023-04-24T04:49:41;13.90;64.20
7900;DHT22;3995;50.856;4.404;2023-04-24T04:52:08;13.90;64.10
7900;DHT22;3995;50.856;4.404;2023-04-24T04:54:36;13.90;64.00
7900;DHT22;3995;50.856;4.404;2023-04-24T04:57:05;13.90;64.00
7900;DHT22;3995;50.856;4.404;2023-04-24T04:59:32;13.90;64.10
7900;DHT22;3995;50.856;4.404;2023-04-24T05:02:00;13.90;64.20
7900;DHT22;3995;50.856;4.404;2023-04-24T05:04:27;13.90;64.20
7900;DHT22;3995;50.856;4.404;2023-04-24T05:06:54;13.90;64.20
7900;DHT22;3995;50.856;4.404;2023-04-24T05:09:22;13.90;64.10
7900;DHT22;3995;50.856;4.404;2023-04-24T05:11:52;13.90;63.90
7900;DHT22;3995;50.856;4.404;2023-04-24T05:14:21;13.90;63.80
7900;DHT22;3995;50.856;4.404;2023-04-24T05:16:49;13.90;63.60
7900;DHT22;3995;50.856;4.404;2023-04-24T05:19:16;13.90;63.60
7900;DHT22;3995;50.856;4.404;2023-04-24T05:21:43;13.90;63.50
7900;DHT22;3995;50.856;4.404;2023-04-24T05:24:11;13.90;63.30
7900;DHT22;3995;50.856;4.404;2023-04-24T05:26:38;13.90;63.20
7900;DHT22;3995;50.856;4.404;2023-04-24T05:29:05;13.90;63.20
7900;DHT22;3995;50.856;4.404;2023-04-24T05:31:34;13.80;63.10
7900;DHT22;3995;50.856;4.404;2023-04-24T05:34:01;13.80;62.90
7900;DHT22;3995;50.856;4.404;2023-04-24T05:36:28;13.80;62.80
7900;DHT22;3995;50.856;4.404;2023-04-24T05:38:56;13.80;62.80
7900;DHT22;3995;50.856;4.404;2023-04-24T05:41:23;13.80;62.90
7900;DHT22;3995;50.856;4.404;2023-04-24T05:43:50;13.80;62.80
7900;DHT22;3995;50.856;4.404;2023-04-24T05:46:17;13.80;62.70
7900;DHT22;3995;50.856;4.404;2023-04-24T05:48:46;13.70;62.70
7900;DHT22;3995;50.856;4.404;2023-04-24T05:51:13;13.70;62.70
7900;DHT22;3995;50.856;4.404;2023-04-24T05:53:40;13.70;62.80
7900;DHT22;3995;50.856;4.404;2023-04-24T05:56:07;13.70;62.70
7900;DHT22;3995;50.856;4.404;2023-04-24T05:58:34;13.70;62.60
7900;DHT22;3995;50.856;4.404;2023-04-24T06:01:03;13.70;62.50
7900;DHT22;3995;50.856;4.404;2023-04-24T06:03:29;13.70;62.40
7900;DHT22;3995;50.856;4.404;2023-04-24T06:05:58;13.70;62.60
7900;DHT22;3995;50.856;4.404;2023-04-24T06:08:25;13.70;62.60
7900;DHT22;3995;50.856;4.404;2023-04-24T06:10:52;13.70;62.60
7900;DHT22;3995;50.856;4.404;2023-04-24T06:13:19;13.70;62.60
7900;DHT22;3995;50.856;4.404;2023-04-24T06:15:46;13.70;62.50
7900;DHT22;3995;50.856;4.404;2023-04-24T06:18:13;13.70;62.60
7900;DHT22;3995;50.856;4.404;2023-04-24T06:20:40;13.70;62.80
7900;DHT22;3995;50.856;4.404;2023-04-24T06:23:08;13.60;62.70
7900;DHT22;3995;50.856;4.404;2023-04-24T06:25:36;13.60;62.80
7900;DHT22;3995;50.856;4.404;2023-04-24T06:28:03;13.60;62.90
7900;DHT22;3995;50.856;4.404;2023-04-24T06:30:30;13.60;63.00
7900;DHT22;3995;50.856;4.404;2023-04-24T06:32:57;13.60;63.00
7900;DHT22;3995;50.856;4.404;2023-04-24T06:35:24;13.60;63.00
7900;DHT22;3995;50.856;4.404;2023-04-24T06:37:51;13.60;63.00
7900;DHT22;3995;50.856;4.404;2023-04-24T06:40:22;13.60;63.00
7900;DHT22;3995;50.856;4.404;2023-04-24T06:42:50;13.60;63.00
7900;DHT22;3995;50.856;4.404;2023-04-24T06:45:18;13.60;63.70
7900;DHT22;3995;50.856;4.404;2023-04-24T06:47:45;13.60;63.60
7900;DHT22;3995;50.856;4.404;2023-04-24T06:50:12;13.60;63.00
7900;DHT22;3995;50.856;4.404;2023-04-24T06:52:40;13.60;62.80
7900;DHT22;3995;50.856;4.404;2023-04-24T06:55:08;13.60;62.70
7900;DHT22;3995;50.856;4.404;2023-04-24T06:57:38;13.60;62.70
7900;DHT22;3995;50.856;4.404;2023-04-24T07:00:06;13.60;62.70
7900;DHT22;3995;50.856;4.404;2023-04-24T07:02:34;13.60;62.80
7900;DHT22;3995;50.856;4.404;2023-04-24T07:05:03;13.60;62.90
7900;DHT22;3995;50.856;4.404;2023-04-24T07:07:30;13.60;62.90
7900;DHT22;3995;50.856;4.404;2023-04-24T07:09:57;13.60;63.00
7900;DHT22;3995;50.856;4.404;2023-04-24T07:12:24;13.60;63.00
7900;DHT22;3995;50.856;4.404;2023-04-24T07:14:53;13.60;63.10
7900;DHT22;3995;50.856;4.404;2023-04-24T07:17:20;13.70;63.20
7900;DHT22;3995;50.856;4.404;2023-04-24T07:19:47;13.70;63.20
7900;DHT22;3995;50.856;4.404;2023-04-24T07:22:14;13.70;63.00
7900;DHT22;3995;50.856;4.404;2023-04-24T07:24:42;13.70;63.10
7900;DHT22;3995;50.856;4.404;2023-04-24T07:27:09;13.70;63.00
7900;DHT22;3995;50.856;4.404;2023-04-24T07:29:37;13.70;62.80
7900;DHT22;3995;50.856;4.404;2023-04-24T07:32:07;13.70;62.80
7900;DHT22;3995;50.856;4.404;2023-04-24T07:34:35;13.70;62.80
7900;DHT22;3995;50.856;4.404;2023-04-24T07:37:02;13.80;62.80
7900;DHT22;3995;50.856;4.404;2023-04-24T07:39:29;13.80;62.60
7900;DHT22;3995;50.856;4.404;2023-04-24T07:41:57;13.80;62.60
7900;DHT22;3995;50.856;4.404;2023-04-24T07:44:25;13.80;63.00
7900;DHT22;3995;50.856;4.404;2023-04-24T07:46:52;13.80;62.40
7900;DHT22;3995;50.856;4.404;2023-04-24T07:49:21;13.80;62.10
7900;DHT22;3995;50.856;4.404;2023-04-24T07:51:49;13.80;62.00
7900;DHT22;3995;50.856;4.404;2023-04-24T07:54:16;13.80;62.20
7900;DHT22;3995;50.856;4.404;2023-04-24T07:56:44;13.80;62.30
7900;DHT22;3995;50.856;4.404;2023-04-24T07:59:11;13.80;62.30
7900;DHT22;3995;50.856;4.404;2023-04-24T08:01:39;13.90;62.60
7900;DHT22;3995;50.856;4.404;2023-04-24T08:04:06;13.90;62.80
7900;DHT22;3995;50.856;4.404;2023-04-24T08:06:35;13.90;62.80
7900;DHT22;3995;50.856;4.404;2023-04-24T08:09:02;13.90;62.80
7900;DHT22;3995;50.856;4.404;2023-04-24T08:11:29;13.90;62.80
7900;DHT22;3995;50.856;4.404;2023-04-24T08:13:57;14.00;62.80
7900;DHT22;3995;50.856;4.404;2023-04-24T08:16:24;14.00;62.50
7900;DHT22;3995;50.856;4.404;2023-04-24T08:18:52;14.00;62.10
7900;DHT22;3995;50.856;4.404;2023-04-24T08:21:20;14.00;62.10
7900;DHT22;3995;50.856;4.404;2023-04-24T08:23:48;14.00;62.10
7900;DHT22;3995;50.856;4.404;2023-04-24T08:26:16;14.00;62.10
7900;DHT22;3995;50.856;4.404;2023-04-24T08:28:43;14.00;61.90
7900;DHT22;3995;50.856;4.404;2023-04-24T08:31:10;14.00;61.70
7900;DHT22;3995;50.856;4.404;2023-04-24T08:33:38;14.00;61.70
7900;DHT22;3995;50.856;4.404;2023-04-24T08:36:07;14.10;61.70
7900;DHT22;3995;50.856;4.404;2023-04-24T08:38:34;14.10;61.60
7900;DHT22;3995;50.856;4.404;2023-04-24T08:41:03;14.10;61.90
7900;DHT22;3995;50.856;4.404;2023-04-24T08:43:33;14.10;61.10
7900;DHT22;3995;50.856;4.404;2023-04-24T08:46:03;14.10;61.20
7900;DHT22;3995;50.856;4.404;2023-04-24T08:48:31;14.10;61.30
7900;DHT22;3995;50.856;4.404;2023-04-24T08:50:59;14.10;61.00
7900;DHT22;3995;50.856;4.404;2023-04-24T08:53:27;14.10;60.90
7900;DHT22;3995;50.856;4.404;2023-04-24T08:55:55;14.20;60.70
7900;DHT22;3995;50.856;4.404;2023-04-24T08:58:25;14.20;60.50
7900;DHT22;3995;50.856;4.404;2023-04-24T09:00:54;14.20;60.40
7900;DHT22;3995;50.856;4.404;2023-04-24T09:03:22;14.30;60.10
7900;DHT22;3995;50.856;4.404;2023-04-24T09:05:49;14.30;60.00
7900;DHT22;3995;50.856;4.404;2023-04-24T09:08:18;14.30;59.90
7900;DHT22;3995;50.856;4.404;2023-04-24T09:10:46;14.30;59.40
7900;DHT22;3995;50.856;4.404;2023-04-24T09:13:13;14.30;59.10
7900;DHT22;3995;50.856;4.404;2023-04-24T09:15:42;14.40;59.10
7900;DHT22;3995;50.856;4.404;2023-04-24T09:18:10;14.40;59.10
7900;DHT22;3995;50.856;4.404;2023-04-24T09:20:59;14.40;58.90
7900;DHT22;3995;50.856;4.404;2023-04-24T09:23:27;14.50;58.30
7900;DHT22;3995;50.856;4.404;2023-04-24T09:25:55;14.50;58.10
7900;DHT22;3995;50.856;4.404;2023-04-24T09:28:26;14.40;57.50
7900;DHT22;3995;50.856;4.404;2023-04-24T09:31:05;14.50;56.90
7900;DHT22;3995;50.856;4.404;2023-04-24T09:33:33;14.50;56.50
7900;DHT22;3995;50.856;4.404;2023-04-24T09:36:00;14.50;56.60
7900;DHT22;3995;50.856;4.404;2023-04-24T09:38:32;14.50;56.40
7900;DHT22;3995;50.856;4.404;2023-04-24T09:41:00;14.50;56.30
7900;DHT22;3995;50.856;4.404;2023-04-24T09:43:31;14.40;56.20
7900;DHT22;3995;50.856;4.404;2023-04-24T09:46:03;14.50;56.40
7900;DHT22;3995;50.856;4.404;2023-04-24T09:48:33;14.50;56.00
7900;DHT22;3995;50.856;4.404;2023-04-24T09:51:04;14.50;56.20
7900;DHT22;3995;50.856;4.404;2023-04-24T09:53:32;14.50;55.90
7900;DHT22;3995;50.856;4.404;2023-04-24T09:56:02;14.50;55.50
7900;DHT22;3995;50.856;4.404;2023-04-24T09:58:30;14.60;55.20
7900;DHT22;3995;50.856;4.404;2023-04-24T10:00:57;14.60;54.70
7900;DHT22;3995;50.856;4.404;2023-04-24T10:03:25;14.60;54.70
7900;DHT22;3995;50.856;4.404;2023-04-24T10:05:58;14.60;54.70
7900;DHT22;3995;50.856;4.404;2023-04-24T10:08:26;14.60;54.50
7900;DHT22;3995;50.856;4.404;2023-04-24T10:11:03;14.60;54.30
7900;DHT22;3995;50.856;4.404;2023-04-24T10:13:30;14.70;54.00
7900;DHT22;3995;50.856;4.404;2023-04-24T10:16:00;14.70;54.20
7900;DHT22;3995;50.856;4.404;2023-04-24T10:18:27;14.80;54.40
7900;DHT22;3995;50.856;4.404;2023-04-24T10:20:56;14.80;53.90
7900;DHT22;3995;50.856;4.404;2023-04-24T10:23:25;14.90;54.20
7900;DHT22;3995;50.856;4.404;2023-04-24T10:25:59;14.90;53.60
7900;DHT22;3995;50.856;4.404;2023-04-24T10:28:32;14.90;53.30
7900;DHT22;3995;50.856;4.404;2023-04-24T10:31:01;14.80;53.10
7900;DHT22;3995;50.856;4.404;2023-04-24T10:33:29;14.80;52.90
7900;DHT22;3995;50.856;4.404;2023-04-24T10:35:59;14.80;53.00
7900;DHT22;3995;50.856;4.404;2023-04-24T10:38:29;14.80;53.00
7900;DHT22;3995;50.856;4.404;2023-04-24T10:41:07;14.90;53.10
7900;DHT22;3995;50.856;4.404;2023-04-24T10:43:35;15.00;52.60
7900;DHT22;3995;50.856;4.404;2023-04-24T10:46:03;15.00;52.60
7900;DHT22;3995;50.856;4.404;2023-04-24T10:48:31;15.10;52.70
7900;DHT22;3995;50.856;4.404;2023-04-24T10:51:01;15.10;52.50
7900;DHT22;3995;50.856;4.404;2023-04-24T10:53:29;15.10;52.60
7900;DHT22;3995;50.856;4.404;2023-04-24T10:56:05;15.10;52.40
7900;DHT22;3995;50.856;4.404;2023-04-24T10:58:37;15.20;51.90
7900;DHT22;3995;50.856;4.404;2023-04-24T11:01:06;15.10;51.80
7900;DHT22;3995;50.856;4.404;2023-04-24T11:03:34;15.10;51.90
7900;DHT22;3995;50.856;4.404;2023-04-24T11:06:05;15.10;51.80
7900;DHT22;3995;50.856;4.404;2023-04-24T11:08:38;15.00;51.70
7900;DHT22;3995;50.856;4.404;2023-04-24T11:11:10;15.00;51.70
7900;DHT22;3995;50.856;4.404;2023-04-24T11:14:06;15.00;51.90
7900;DHT22;3995;50.856;4.404;2023-04-24T11:16:35;15.00;51.90
7900;DHT22;3995;50.856;4.404;2023-04-24T11:19:06;15.00;52.10
7900;DHT22;3995;50.856;4.404;2023-04-24T11:21:41;15.00;52.20
7900;DHT22;3995;50.856;4.404;2023-04-24T11:24:32;15.00;52.10
7900;DHT22;3995;50.856;4.404;2023-04-24T11:27:06;15.10;51.80
7900;DHT22;3995;50.856;4.404;2023-04-24T11:29:44;15.10;51.80
7900;DHT22;3995;50.856;4.404;2023-04-24T11:32:35;15.10;51.80
7900;DHT22;3995;50.856;4.404;2023-04-24T11:35:04;15.30;51.40
7900;DHT22;3995;50.856;4.404;2023-04-24T11:37:38;15.30;51.30
7900;DHT22;3995;50.856;4.404;2023-04-24T11:40:07;15.30;51.10
7900;DHT22;3995;50.856;4.404;2023-04-24T11:42:36;15.30;50.80
7900;DHT22;3995;50.856;4.404;2023-04-24T11:45:08;15.30;50.80
7900;DHT22;3995;50.856;4.404;2023-04-24T11:47:36;15.30;50.70
7900;DHT22;3995;50.856;4.404;2023-04-24T11:50:05;15.30;50.60
7900;DHT22;3995;50.856;4.404;2023-04-24T11:52:38;15.40;50.60
7900;DHT22;3995;50.856;4.404;2023-04-24T11:55:07;15.50;50.60
7900;DHT22;3995;50.856;4.404;2023-04-24T11:57:35;15.50;50.70
7900;DHT22;3995;50.856;4.404;2023-04-24T12:00:03;15.60;50.60
7900;DHT22;3995;50.856;4.404;2023-04-24T12:02:31;15.70;50.70
7900;DHT22;3995;50.856;4.404;2023-04-24T12:04:58;15.90;50.70
7900;DHT22;3995;50.856;4.404;2023-04-24T12:07:25;16.10;50.40
7900;DHT22;3995;50.856;4.404;2023-04-24T12:09:58;16.30;50.00
7900;DHT22;3995;50.856;4.404;2023-04-24T12:12:26;16.40;49.40
7900;DHT22;3995;50.856;4.404;2023-04-24T12:14:55;16.40;49.00
7900;DHT22;3995;50.856;4.404;2023-04-24T12:17:27;16.40;49.40
7900;DHT22;3995;50.856;4.404;2023-04-24T12:19:58;16.50;49.80
7900;DHT22;3995;50.856;4.404;2023-04-24T12:22:25;16.60;49.70
7900;DHT22;3995;50.856;4.404;2023-04-24T12:24:58;16.70;49.30
7900;DHT22;3995;50.856;4.404;2023-04-24T12:27:26;16.80;48.50
7900;DHT22;3995;50.856;4.404;2023-04-24T12:29:56;16.80;48.40
7900;DHT22;3995;50.856;4.404;2023-04-24T12:32:24;17.00;48.40
7900;DHT22;3995;50.856;4.404;2023-04-24T12:34:52;17.10;47.90
7900;DHT22;3995;50.856;4.404;2023-04-24T12:37:20;17.10;47.40
7900;DHT22;3995;50.856;4.404;2023-04-24T12:40:02;17.20;47.50
7900;DHT22;3995;50.856;4.404;2023-04-24T12:42:30;17.20;47.20
7900;DHT22;3995;50.856;4.404;2023-04-24T12:44:58;17.20;47.00
7900;DHT22;3995;50.856;4.404;2023-04-24T12:47:26;17.20;46.70
7900;DHT22;3995;50.856;4.404;2023-04-24T12:49:54;17.20;46.60
7900;DHT22;3995;50.856;4.404;2023-04-24T12:52:21;17.10;46.60
7900;DHT22;3995;50.856;4.404;2023-04-24T12:54:49;17.20;46.80
7900;DHT22;3995;50.856;4.404;2023-04-24T12:57:18;17.30;46.80
7900;DHT22;3995;50.856;4.404;2023-04-24T12:59:45;17.40;46.70
7900;DHT22;3995;50.856;4.404;2023-04-24T13:02:21;17.50;46.50
7900;DHT22;3995;50.856;4.404;2023-04-24T13:04:51;17.70;46.20
7900;DHT22;3995;50.856;4.404;2023-04-24T13:07:19;17.80;46.20
7900;DHT22;3995;50.856;4.404;2023-04-24T13:09:48;17.80;46.10
7900;DHT22;3995;50.856;4.404;2023-04-24T13:12:16;17.80;46.20
7900;DHT22;3995;50.856;4.404;2023-04-24T13:14:44;17.70;46.30
7900;DHT22;3995;50.856;4.404;2023-04-24T13:17:12;17.70;46.40
7900;DHT22;3995;50.856;4.404;2023-04-24T13:19:41;17.60;46.60
7900;DHT22;3995;50.856;4.404;2023-04-24T13:22:09;17.50;46.70
7900;DHT22;3995;50.856;4.404;2023-04-24T13:24:38;17.40;46.40
7900;DHT22;3995;50.856;4.404;2023-04-24T13:27:06;17.30;46.50
7900;DHT22;3995;50.856;4.404;2023-04-24T13:29:33;17.20;46.40
7900;DHT22;3995;50.856;4.404;2023-04-24T13:32:03;17.10;46.40
7900;DHT22;3995;50.856;4.404;2023-04-24T13:34:33;17.00;46.40
7900;DHT22;3995;50.856;4.404;2023-04-24T13:37:01;16.90;46.40
7900;DHT22;3995;50.856;4.404;2023-04-24T13:39:32;16.90;46.60
7900;DHT22;3995;50.856;4.404;2023-04-24T13:41:59;16.80;46.50
7900;DHT22;3995;50.856;4.404;2023-04-24T13:44:29;16.70;46.60
7900;DHT22;3995;50.856;4.404;2023-04-24T13:46:58;16.70;46.70
7900;DHT22;3995;50.856;4.404;2023-04-24T13:49:27;16.70;46.60
7900;DHT22;3995;50.856;4.404;2023-04-24T13:51:55;16.60;46.30
7900;DHT22;3995;50.856;4.404;2023-04-24T13:54:27;16.60;46.90
7900;DHT22;3995;50.856;4.404;2023-04-24T13:56:57;16.50;45.90
7900;DHT22;3995;50.856;4.404;2023-04-24T13:59:25;16.50;46.10
7900;DHT22;3995;50.856;4.404;2023-04-24T14:01:52;16.50;46.10
7900;DHT22;3995;50.856;4.404;2023-04-24T14:04:20;16.50;46.30
7900;DHT22;3995;50.856;4.404;2023-04-24T14:06:48;16.50;46.40
7900;DHT22;3995;50.856;4.404;2023-04-24T14:09:16;16.50;46.30
7900;DHT22;3995;50.856;4.404;2023-04-24T14:11:43;16.50;46.20
7900;DHT22;3995;50.856;4.404;2023-04-24T14:14:11;16.50;46.20
7900;DHT22;3995;50.856;4.404;2023-04-24T14:16:39;16.50;46.00
7900;DHT22;3995;50.856;4.404;2023-04-24T14:19:06;16.50;45.60
7900;DHT22;3995;50.856;4.404;2023-04-24T14:21:34;16.50;45.30
7900;DHT22;3995;50.856;4.404;2023-04-24T14:24:02;16.50;45.20
7900;DHT22;3995;50.856;4.404;2023-04-24T14:26:30;16.50;45.30
7900;DHT22;3995;50.856;4.404;2023-04-24T14:28:57;16.50;45.50
7900;DHT22;3995;50.856;4.404;2023-04-24T14:31:25;16.50;46.00
7900;DHT22;3995;50.856;4.404;2023-04-24T14:33:52;16.40;46.30
7900;DHT22;3995;50.856;4.404;2023-04-24T14:36:19;16.40;46.50
7900;DHT22;3995;50.856;4.404;2023-04-24T14:38:47;16.40;46.80
7900;DHT22;3995;50.856;4.404;2023-04-24T14:41:16;16.40;46.80
7900;DHT22;3995;50.856;4.404;2023-04-24T14:43:43;16.30;46.60
7900;DHT22;3995;50.856;4.404;2023-04-24T14:46:10;16.30;46.60
7900;DHT22;3995;50.856;4.404;2023-04-24T14:48:37;16.30;46.60
7900;DHT22;3995;50.856;4.404;2023-04-24T14:51:04;16.30;46.80
7900;DHT22;3995;50.856;4.404;2023-04-24T14:53:32;16.20;46.90
7900;DHT22;3995;50.856;4.404;2023-04-24T14:55:59;16.20;46.70
7900;DHT22;3995;50.856;4.404;2023-04-24T14:58:28;16.20;46.60
7900;DHT22;3995;50.856;4.404;2023-04-24T15:00:55;16.20;46.60
7900;DHT22;3995;50.856;4.404;2023-04-24T15:03:22;16.20;46.60
7900;DHT22;3995;50.856;4.404;2023-04-24T15:05:50;16.10;46.50
7900;DHT22;3995;50.856;4.404;2023-04-24T15:08:17;16.10;46.40
7900;DHT22;3995;50.856;4.404;2023-04-24T15:10:44;16.20;46.50
7900;DHT22;3995;50.856;4.404;2023-04-24T15:13:12;16.10;46.20
7900;DHT22;3995;50.856;4.404;2023-04-24T15:15:41;16.10;46.10
7900;DHT22;3995;50.856;4.404;2023-04-24T15:18:09;16.10;46.30
7900;DHT22;3995;50.856;4.404;2023-04-24T15:20:37;16.20;46.50
7900;DHT22;3995;50.856;4.404;2023-04-24T15:23:08;16.10;46.40
7900;DHT22;3995;50.856;4.404;2023-04-24T15:25:35;16.20;46.30
7900;DHT22;3995;50.856;4.404;2023-04-24T15:28:06;16.10;45.80
7900;DHT22;3995;50.856;4.404;2023-04-24T15:30:33;16.10;45.50
7900;DHT22;3995;50.856;4.404;2023-04-24T15:33:02;16.10;45.60
7900;DHT22;3995;50.856;4.404;2023-04-24T15:35:29;16.10;45.70
7900;DHT22;3995;50.856;4.404;2023-04-24T15:37:56;16.10;45.90
7900;DHT22;3995;50.856;4.404;2023-04-24T15:40:24;16.10;45.90
7900;DHT22;3995;50.856;4.404;2023-04-24T15:42:51;16.10;46.00
7900;DHT22;3995;50.856;4.404;2023-04-24T15:45:18;16.10;46.10
7900;DHT22;3995;50.856;4.404;2023-04-24T15:47:45;16.10;46.30
7900;DHT22;3995;50.856;4.404;2023-04-24T15:50:14;16.10;46.30
7900;DHT22;3995;50.856;4.404;2023-04-24T15:52:42;16.10;46.30
7900;DHT22;3995;50.856;4.404;2023-04-24T15:55:10;16.10;46.40
7900;DHT22;3995;50.856;4.404;2023-04-24T15:57:38;16.10;46.20
7900;DHT22;3995;50.856;4.404;2023-04-24T16:00:06;16.10;46.20
7900;DHT22;3995;50.856;4.404;2023-04-24T16:02:34;16.00;46.20
7900;DHT22;3995;50.856;4.404;2023-04-24T16:05:02;16.00;46.00
7900;DHT22;3995;50.856;4.404;2023-04-24T16:07:30;16.00;45.90
7900;DHT22;3995;50.856;4.404;2023-04-24T16:09:57;16.00;45.70